San Juan Community, Texas
Current Conditions -  °F | °C
As of 3:53 PM on Friday 31 Oct 2014 (Local Time) from KMFE Reporting Station
Few Clouds Few Clouds  
Wind Chill: 78°   Ceiling: Unl
Heat Index: 80°   Visibility: 10mi
Dew Point: 64°   Wind: 12mph
Humidity: 62%   Direction: 20°NNE
Pressure: 30.15"   Gusts: NA
Location:  26.2938°N, 98.1548°W
Report Text: KMFE 312053Z 02010KT 10SM FEW030 FEW038 26/18 A3015 RMK AO2 SLP207 T02560178 56005 $
Loading
Personal Weather Stations






























Interactive Weather Map
Tropical Storm Tracking
New forecast layout! Learn more

10-Day Weather Forecast

Advertisements
Track Severe Weather on mobile